sensor_id;sensor_type;location;lat;lon;timestamp;temperature;humidity
1568;DHT22;777;47.156;8.326;2023-04-08T00:00:31;3.50;99.90
1568;DHT22;777;47.156;8.326;2023-04-08T00:02:58;3.50;99.90
1568;DHT22;777;47.156;8.326;2023-04-08T00:05:25;3.50;99.90
1568;DHT22;777;47.156;8.326;2023-04-08T00:07:52;3.50;99.90
1568;DHT22;777;47.156;8.326;2023-04-08T00:10:19;3.30;99.90
1568;DHT22;777;47.156;8.326;2023-04-08T00:12:47;3.10;99.90
1568;DHT22;777;47.156;8.326;2023-04-08T00:15:15;3.10;99.90
1568;DHT22;777;47.156;8.326;2023-04-08T00:17:42;3.10;99.90
1568;DHT22;777;47.156;8.326;2023-04-08T00:20:10;3.20;99.90
1568;DHT22;777;47.156;8.326;2023-04-08T00:22:37;3.20;99.90
1568;DHT22;777;47.156;8.326;2023-04-08T00:25:05;3.20;99.90
1568;DHT22;777;47.156;8.326;2023-04-08T00:27:34;3.30;99.90
1568;DHT22;777;47.156;8.326;2023-04-08T00:30:01;3.30;99.90
1568;DHT22;777;47.156;8.326;2023-04-08T00:32:29;3.20;99.90
1568;DHT22;777;47.156;8.326;2023-04-08T00:34:57;3.30;99.90
1568;DHT22;777;47.156;8.326;2023-04-08T00:37:24;3.20;99.90
1568;DHT22;777;47.156;8.326;2023-04-08T00:39:51;3.00;99.90
1568;DHT22;777;47.156;8.326;2023-04-08T00:42:19;2.90;99.90
1568;DHT22;777;47.156;8.326;2023-04-08T00:44:46;2.70;99.90
1568;DHT22;777;47.156;8.326;2023-04-08T00:47:14;2.70;99.90
1568;DHT22;777;47.156;8.326;2023-04-08T00:49:43;2.60;99.90
1568;DHT22;777;47.156;8.326;2023-04-08T00:52:10;2.60;99.90
1568;DHT22;777;47.156;8.326;2023-04-08T00:54:38;2.60;99.90
1568;DHT22;777;47.156;8.326;2023-04-08T00:57:05;2.70;99.90
1568;DHT22;777;47.156;8.326;2023-04-08T00:59:33;2.60;99.90
1568;DHT22;777;47.156;8.326;2023-04-08T01:02:08;2.60;99.90
1568;DHT22;777;47.156;8.326;2023-04-08T01:04:46;2.50;99.90
1568;DHT22;777;47.156;8.326;2023-04-08T01:07:19;2.40;99.90
1568;DHT22;777;47.156;8.326;2023-04-08T01:09:52;2.40;99.90
1568;DHT22;777;47.156;8.326;2023-04-08T01:12:23;2.50;99.90
1568;DHT22;777;47.156;8.326;2023-04-08T01:14:57;2.40;99.90
1568;DHT22;777;47.156;8.326;2023-04-08T01:17:26;2.40;99.90
1568;DHT22;777;47.156;8.326;2023-04-08T01:19:55;2.30;99.90
1568;DHT22;777;47.156;8.326;2023-04-08T01:22:32;2.20;99.90
1568;DHT22;777;47.156;8.326;2023-04-08T01:25:04;2.00;99.90
1568;DHT22;777;47.156;8.326;2023-04-08T01:27:35;1.80;99.90
1568;DHT22;777;47.156;8.326;2023-04-08T01:30:04;1.80;99.90
1568;DHT22;777;47.156;8.326;2023-04-08T01:32:33;1.80;99.90
1568;DHT22;777;47.156;8.326;2023-04-08T01:35:01;1.90;99.90
1568;DHT22;777;47.156;8.326;2023-04-08T01:37:29;2.00;99.90
1568;DHT22;777;47.156;8.326;2023-04-08T01:39:57;2.00;99.90
1568;DHT22;777;47.156;8.326;2023-04-08T01:42:26;1.90;99.90
1568;DHT22;777;47.156;8.326;2023-04-08T01:44:57;1.70;99.90
1568;DHT22;777;47.156;8.326;2023-04-08T01:47:27;1.70;99.90
1568;DHT22;777;47.156;8.326;2023-04-08T01:49:55;1.80;99.90
1568;DHT22;777;47.156;8.326;2023-04-08T01:52:24;1.80;99.90
1568;DHT22;777;47.156;8.326;2023-04-08T01:54:52;1.80;99.90
1568;DHT22;777;47.156;8.326;2023-04-08T01:57:23;1.70;99.90
1568;DHT22;777;47.156;8.326;2023-04-08T01:59:51;1.70;99.90
1568;DHT22;777;47.156;8.326;2023-04-08T02:02:21;1.70;99.90
1568;DHT22;777;47.156;8.326;2023-04-08T02:04:52;1.70;99.90
1568;DHT22;777;47.156;8.326;2023-04-08T02:07:19;1.70;99.90
1568;DHT22;777;47.156;8.326;2023-04-08T02:09:46;1.70;99.90
1568;DHT22;777;47.156;8.326;2023-04-08T02:12:13;1.60;99.90
1568;DHT22;777;47.156;8.326;2023-04-08T02:14:40;1.60;99.90
1568;DHT22;777;47.156;8.326;2023-04-08T02:17:09;1.60;99.90
1568;DHT22;777;47.156;8.326;2023-04-08T02:19:43;1.50;99.90
1568;DHT22;777;47.156;8.326;2023-04-08T02:22:18;1.60;99.90
1568;DHT22;777;47.156;8.326;2023-04-08T02:24:49;1.50;99.90
1568;DHT22;777;47.156;8.326;2023-04-08T02:27:17;1.50;99.90
1568;DHT22;777;47.156;8.326;2023-04-08T02:29:46;1.50;99.90
1568;DHT22;777;47.156;8.326;2023-04-08T02:32:15;1.40;99.90
1568;DHT22;777;47.156;8.326;2023-04-08T02:34:46;1.30;99.90
1568;DHT22;777;47.156;8.326;2023-04-08T02:37:14;1.40;99.90
1568;DHT22;777;47.156;8.326;2023-04-08T02:39:41;1.40;99.90
1568;DHT22;777;47.156;8.326;2023-04-08T02:42:10;1.50;99.90
1568;DHT22;777;47.156;8.326;2023-04-08T02:44:37;1.50;99.90
1568;DHT22;777;47.156;8.326;2023-04-08T02:47:04;1.40;99.90
1568;DHT22;777;47.156;8.326;2023-04-08T02:49:34;1.50;99.90
1568;DHT22;777;47.156;8.326;2023-04-08T02:52:02;1.60;99.90
1568;DHT22;777;47.156;8.326;2023-04-08T02:54:29;1.60;99.90
1568;DHT22;777;47.156;8.326;2023-04-08T02:56:56;1.60;99.90
1568;DHT22;777;47.156;8.326;2023-04-08T02:59:23;1.50;99.90
1568;DHT22;777;47.156;8.326;2023-04-08T03:01:50;1.50;99.90
1568;DHT22;777;47.156;8.326;2023-04-08T03:04:17;1.40;99.90
1568;DHT22;777;47.156;8.326;2023-04-08T03:06:45;1.30;99.90
1568;DHT22;777;47.156;8.326;2023-04-08T03:09:13;1.30;99.90
1568;DHT22;777;47.156;8.326;2023-04-08T03:11:40;1.30;99.90
1568;DHT22;777;47.156;8.326;2023-04-08T03:14:07;1.40;99.90
1568;DHT22;777;47.156;8.326;2023-04-08T03:16:34;1.40;99.90
1568;DHT22;777;47.156;8.326;2023-04-08T03:19:01;1.40;99.90
1568;DHT22;777;47.156;8.326;2023-04-08T03:21:28;1.30;99.90
1568;DHT22;777;47.156;8.326;2023-04-08T03:23:56;1.40;99.90
1568;DHT22;777;47.156;8.326;2023-04-08T03:26:24;1.50;99.90
1568;DHT22;777;47.156;8.326;2023-04-08T03:28:52;1.50;99.90
1568;DHT22;777;47.156;8.326;2023-04-08T03:31:19;1.40;99.90
1568;DHT22;777;47.156;8.326;2023-04-08T03:33:46;1.50;99.90
1568;DHT22;777;47.156;8.326;2023-04-08T03:36:13;1.60;99.90
1568;DHT22;777;47.156;8.326;2023-04-08T03:38:40;1.60;99.90
1568;DHT22;777;47.156;8.326;2023-04-08T03:41:08;1.70;99.90
1568;DHT22;777;47.156;8.326;2023-04-08T03:43:36;1.80;99.90
1568;DHT22;777;47.156;8.326;2023-04-08T03:46:03;1.90;99.90
1568;DHT22;777;47.156;8.326;2023-04-08T03:48:31;2.00;99.90
1568;DHT22;777;47.156;8.326;2023-04-08T03:50:58;2.20;99.90
1568;DHT22;777;47.156;8.326;2023-04-08T03:53:25;2.30;99.90
1568;DHT22;777;47.156;8.326;2023-04-08T03:55:55;2.40;99.90
1568;DHT22;777;47.156;8.326;2023-04-08T03:58:22;2.50;99.90
1568;DHT22;777;47.156;8.326;2023-04-08T04:00:51;2.60;99.90
1568;DHT22;777;47.156;8.326;2023-04-08T04:03:18;2.70;99.90
1568;DHT22;777;47.156;8.326;2023-04-08T04:05:45;2.80;99.90
1568;DHT22;777;47.156;8.326;2023-04-08T04:08:12;2.70;99.90
1568;DHT22;777;47.156;8.326;2023-04-08T04:10:39;2.70;99.90
1568;DHT22;777;47.156;8.326;2023-04-08T04:13:06;2.70;99.90
1568;DHT22;777;47.156;8.326;2023-04-08T04:15:34;2.60;99.90
1568;DHT22;777;47.156;8.326;2023-04-08T04:18:05;2.60;99.90
1568;DHT22;777;47.156;8.326;2023-04-08T04:20:32;2.60;99.90
1568;DHT22;777;47.156;8.326;2023-04-08T04:22:59;2.50;99.90
1568;DHT22;777;47.156;8.326;2023-04-08T04:25:26;2.50;99.90
1568;DHT22;777;47.156;8.326;2023-04-08T04:27:53;2.50;99.90
1568;DHT22;777;47.156;8.326;2023-04-08T04:30:20;2.60;99.90
1568;DHT22;777;47.156;8.326;2023-04-08T04:32:47;2.60;99.90
1568;DHT22;777;47.156;8.326;2023-04-08T04:35:15;2.60;99.90
1568;DHT22;777;47.156;8.326;2023-04-08T04:37:42;2.60;99.90
1568;DHT22;777;47.156;8.326;2023-04-08T04:40:10;2.70;99.90
1568;DHT22;777;47.156;8.326;2023-04-08T04:42:37;2.70;99.90
1568;DHT22;777;47.156;8.326;2023-04-08T04:45:05;2.70;99.90
1568;DHT22;777;47.156;8.326;2023-04-08T04:47:32;2.70;99.90
1568;DHT22;777;47.156;8.326;2023-04-08T04:49:59;2.70;99.90
1568;DHT22;777;47.156;8.326;2023-04-08T04:52:27;2.80;99.90
1568;DHT22;777;47.156;8.326;2023-04-08T04:54:56;2.80;99.90
1568;DHT22;777;47.156;8.326;2023-04-08T04:57:23;2.80;99.90
1568;DHT22;777;47.156;8.326;2023-04-08T04:59:50;2.80;99.90
1568;DHT22;777;47.156;8.326;2023-04-08T05:02:17;2.80;99.90
1568;DHT22;777;47.156;8.326;2023-04-08T05:04:44;2.90;99.90
1568;DHT22;777;47.156;8.326;2023-04-08T05:07:11;2.90;99.90
1568;DHT22;777;47.156;8.326;2023-04-08T05:09:40;3.00;99.90
1568;DHT22;777;47.156;8.326;2023-04-08T05:12:07;3.10;99.90
1568;DHT22;777;47.156;8.326;2023-04-08T05:14:34;3.10;99.90
1568;DHT22;777;47.156;8.326;2023-04-08T05:17:01;3.20;99.90
1568;DHT22;777;47.156;8.326;2023-04-08T05:19:30;3.20;99.90
1568;DHT22;777;47.156;8.326;2023-04-08T05:21:57;3.30;99.90
1568;DHT22;777;47.156;8.326;2023-04-08T05:24:24;3.30;99.90
1568;DHT22;777;47.156;8.326;2023-04-08T05:26:53;3.30;99.90
1568;DHT22;777;47.156;8.326;2023-04-08T05:29:22;3.30;99.90
1568;DHT22;777;47.156;8.326;2023-04-08T05:31:49;3.20;99.90
1568;DHT22;777;47.156;8.326;2023-04-08T05:34:16;3.20;99.90
1568;DHT22;777;47.156;8.326;2023-04-08T05:36:47;3.40;99.90
1568;DHT22;777;47.156;8.326;2023-04-08T05:39:16;3.50;99.90
1568;DHT22;777;47.156;8.326;2023-04-08T05:41:43;3.60;99.90
1568;DHT22;777;47.156;8.326;2023-04-08T05:44:12;3.70;99.90
1568;DHT22;777;47.156;8.326;2023-04-08T05:46:40;3.80;99.90
1568;DHT22;777;47.156;8.326;2023-04-08T05:49:07;3.80;99.90
1568;DHT22;777;47.156;8.326;2023-04-08T05:51:34;3.90;99.90
1568;DHT22;777;47.156;8.326;2023-04-08T05:54:01;4.10;99.90
1568;DHT22;777;47.156;8.326;2023-04-08T05:56:28;4.10;99.90
1568;DHT22;777;47.156;8.326;2023-04-08T05:58:56;4.20;99.90
1568;DHT22;777;47.156;8.326;2023-04-08T06:01:25;4.20;99.90
1568;DHT22;777;47.156;8.326;2023-04-08T06:03:52;4.30;99.90
1568;DHT22;777;47.156;8.326;2023-04-08T06:06:20;4.30;99.90
1568;DHT22;777;47.156;8.326;2023-04-08T06:08:47;4.40;99.90
1568;DHT22;777;47.156;8.326;2023-04-08T06:11:14;4.40;99.90
1568;DHT22;777;47.156;8.326;2023-04-08T06:13:41;4.40;99.90
1568;DHT22;777;47.156;8.326;2023-04-08T06:16:12;4.40;99.90
1568;DHT22;777;47.156;8.326;2023-04-08T06:18:41;4.40;99.90
1568;DHT22;777;47.156;8.326;2023-04-08T06:21:09;4.50;99.90
1568;DHT22;777;47.156;8.326;2023-04-08T06:23:36;4.50;99.90
1568;DHT22;777;47.156;8.326;2023-04-08T06:26:03;4.60;99.90
1568;DHT22;777;47.156;8.326;2023-04-08T06:28:31;4.60;99.90
1568;DHT22;777;47.156;8.326;2023-04-08T06:30:58;4.60;99.90
1568;DHT22;777;47.156;8.326;2023-04-08T06:33:26;4.70;99.90
1568;DHT22;777;47.156;8.326;2023-04-08T06:36:01;4.70;99.90
1568;DHT22;777;47.156;8.326;2023-04-08T06:38:29;4.80;99.90
1568;DHT22;777;47.156;8.326;2023-04-08T06:41:00;4.80;99.90
1568;DHT22;777;47.156;8.326;2023-04-08T06:43:27;4.90;99.90
1568;DHT22;777;47.156;8.326;2023-04-08T06:45:55;5.00;99.90
1568;DHT22;777;47.156;8.326;2023-04-08T06:48:22;5.10;99.90
1568;DHT22;777;47.156;8.326;2023-04-08T06:50:53;5.20;99.90
1568;DHT22;777;47.156;8.326;2023-04-08T06:53:23;5.20;99.90
1568;DHT22;777;47.156;8.326;2023-04-08T06:55:50;5.40;99.90
1568;DHT22;777;47.156;8.326;2023-04-08T06:58:17;5.50;99.90
1568;DHT22;777;47.156;8.326;2023-04-08T07:00:44;5.60;99.90
1568;DHT22;777;47.156;8.326;2023-04-08T07:03:12;5.80;99.90
1568;DHT22;777;47.156;8.326;2023-04-08T07:05:39;5.90;99.90
1568;DHT22;777;47.156;8.326;2023-04-08T07:08:06;6.10;99.90
1568;DHT22;777;47.156;8.326;2023-04-08T07:10:35;6.20;99.90
1568;DHT22;777;47.156;8.326;2023-04-08T07:13:03;6.30;99.90
1568;DHT22;777;47.156;8.326;2023-04-08T07:15:30;6.40;99.90
1568;DHT22;777;47.156;8.326;2023-04-08T07:17:57;6.30;99.90
1568;DHT22;777;47.156;8.326;2023-04-08T07:20:24;6.40;99.90
1568;DHT22;777;47.156;8.326;2023-04-08T07:22:52;6.60;99.90
1568;DHT22;777;47.156;8.326;2023-04-08T07:25:19;6.50;99.90
1568;DHT22;777;47.156;8.326;2023-04-08T07:27:47;6.50;99.90
1568;DHT22;777;47.156;8.326;2023-04-08T07:30:14;6.60;99.90
1568;DHT22;777;47.156;8.326;2023-04-08T07:32:41;6.70;99.90
1568;DHT22;777;47.156;8.326;2023-04-08T07:35:09;6.70;99.90
1568;DHT22;777;47.156;8.326;2023-04-08T07:37:36;6.80;99.90
1568;DHT22;777;47.156;8.326;2023-04-08T07:40:03;6.90;99.90
1568;DHT22;777;47.156;8.326;2023-04-08T07:42:30;7.00;99.90
1568;DHT22;777;47.156;8.326;2023-04-08T07:44:59;7.20;99.90
1568;DHT22;777;47.156;8.326;2023-04-08T07:47:26;7.30;99.90
1568;DHT22;777;47.156;8.326;2023-04-08T07:49:54;7.40;99.90
1568;DHT22;777;47.156;8.326;2023-04-08T07:52:21;7.30;99.90
1568;DHT22;777;47.156;8.326;2023-04-08T07:54:48;7.40;99.90
1568;DHT22;777;47.156;8.326;2023-04-08T07:57:15;7.20;99.90
1568;DHT22;777;47.156;8.326;2023-04-08T07:59:42;7.10;99.90
1568;DHT22;777;47.156;8.326;2023-04-08T08:02:10;6.90;99.90
1568;DHT22;777;47.156;8.326;2023-04-08T08:04:37;6.80;99.90
1568;DHT22;777;47.156;8.326;2023-04-08T08:07:04;6.90;99.90
1568;DHT22;777;47.156;8.326;2023-04-08T08:09:31;6.90;99.90
1568;DHT22;777;47.156;8.326;2023-04-08T08:11:58;7.00;99.90
1568;DHT22;777;47.156;8.326;2023-04-08T08:14:25;6.90;99.90
1568;DHT22;777;47.156;8.326;2023-04-08T08:16:53;6.90;99.90
1568;DHT22;777;47.156;8.326;2023-04-08T08:19:22;7.10;99.90
1568;DHT22;777;47.156;8.326;2023-04-08T08:21:50;7.20;99.90
1568;DHT22;777;47.156;8.326;2023-04-08T08:24:17;7.30;99.90
1568;DHT22;777;47.156;8.326;2023-04-08T08:26:44;7.50;99.90
1568;DHT22;777;47.156;8.326;2023-04-08T08:29:13;7.60;99.90
1568;DHT22;777;47.156;8.326;2023-04-08T08:31:40;7.70;99.90
1568;DHT22;777;47.156;8.326;2023-04-08T08:34:07;7.80;99.90
1568;DHT22;777;47.156;8.326;2023-04-08T08:36:36;7.80;99.90
1568;DHT22;777;47.156;8.326;2023-04-08T08:39:03;7.80;99.90
1568;DHT22;777;47.156;8.326;2023-04-08T08:41:32;7.90;99.90
1568;DHT22;777;47.156;8.326;2023-04-08T08:44:01;7.90;99.90
1568;DHT22;777;47.156;8.326;2023-04-08T08:46:29;8.10;99.90
1568;DHT22;777;47.156;8.326;2023-04-08T08:48:56;8.20;99.90
1568;DHT22;777;47.156;8.326;2023-04-08T08:51:24;8.40;99.90
1568;DHT22;777;47.156;8.326;2023-04-08T08:53:52;8.80;99.90
1568;DHT22;777;47.156;8.326;2023-04-08T08:56:19;8.80;99.90
1568;DHT22;777;47.156;8.326;2023-04-08T08:58:47;9.20;99.90
1568;DHT22;777;47.156;8.326;2023-04-08T09:01:33;9.60;99.90
1568;DHT22;777;47.156;8.326;2023-04-08T09:04:08;9.80;99.90
1568;DHT22;777;47.156;8.326;2023-04-08T09:06:35;9.70;99.90
1568;DHT22;777;47.156;8.326;2023-04-08T09:09:04;9.90;99.90
1568;DHT22;777;47.156;8.326;2023-04-08T09:11:35;10.00;99.90
1568;DHT22;777;47.156;8.326;2023-04-08T09:14:03;10.50;99.90
1568;DHT22;777;47.156;8.326;2023-04-08T09:16:31;11.10;99.90
1568;DHT22;777;47.156;8.326;2023-04-08T09:19:07;11.50;99.90
1568;DHT22;777;47.156;8.326;2023-04-08T09:21:35;12.40;99.90
1568;DHT22;777;47.156;8.326;2023-04-08T09:24:04;13.50;99.90
1568;DHT22;777;47.156;8.326;2023-04-08T09:26:31;14.70;99.90
1568;DHT22;777;47.156;8.326;2023-04-08T09:29:00;14.80;99.90
1568;DHT22;777;47.156;8.326;2023-04-08T09:31:29;15.40;99.90
1568;DHT22;777;47.156;8.326;2023-04-08T09:33:57;16.00;99.90
1568;DHT22;777;47.156;8.326;2023-04-08T09:36:25;16.40;99.90
1568;DHT22;777;47.156;8.326;2023-04-08T09:38:53;17.20;99.90
1568;DHT22;777;47.156;8.326;2023-04-08T09:41:23;16.60;99.90
1568;DHT22;777;47.156;8.326;2023-04-08T09:43:54;15.20;99.90
1568;DHT22;777;47.156;8.326;2023-04-08T09:46:26;14.40;99.90
1568;DHT22;777;47.156;8.326;2023-04-08T09:49:00;13.60;99.90
1568;DHT22;777;47.156;8.326;2023-04-08T09:51:32;14.90;99.90
1568;DHT22;777;47.156;8.326;2023-04-08T09:54:02;16.10;99.90
1568;DHT22;777;47.156;8.326;2023-04-08T09:56:42;15.60;99.90
1568;DHT22;777;47.156;8.326;2023-04-08T09:59:13;15.20;99.90
1568;DHT22;777;47.156;8.326;2023-04-08T10:01:45;14.50;99.90
1568;DHT22;777;47.156;8.326;2023-04-08T10:04:19;14.30;99.90
1568;DHT22;777;47.156;8.326;2023-04-08T10:06:51;14.30;99.90
1568;DHT22;777;47.156;8.326;2023-04-08T10:09:20;14.70;99.90
1568;DHT22;777;47.156;8.326;2023-04-08T10:11:49;14.40;99.90
1568;DHT22;777;47.156;8.326;2023-04-08T10:14:17;14.70;99.90
1568;DHT22;777;47.156;8.326;2023-04-08T10:16:46;14.40;99.90
1568;DHT22;777;47.156;8.326;2023-04-08T10:19:37;14.20;99.90
1568;DHT22;777;47.156;8.326;2023-04-08T10:22:45;14.10;99.90
1568;DHT22;777;47.156;8.326;2023-04-08T10:25:29;15.00;99.90
1568;DHT22;777;47.156;8.326;2023-04-08T10:27:58;13.40;99.90
1568;DHT22;777;47.156;8.326;2023-04-08T10:30:42;14.40;99.90
1568;DHT22;777;47.156;8.326;2023-04-08T10:33:10;14.20;99.90
1568;DHT22;777;47.156;8.326;2023-04-08T10:35:41;13.90;99.90
1568;DHT22;777;47.156;8.326;2023-04-08T10:38:11;13.80;99.90
1568;DHT22;777;47.156;8.326;2023-04-08T10:40:39;14.10;99.90
1568;DHT22;777;47.156;8.326;2023-04-08T10:43:09;14.20;99.90
1568;DHT22;777;47.156;8.326;2023-04-08T10:45:37;14.50;99.90
1568;DHT22;777;47.156;8.326;2023-04-08T10:48:14;13.40;99.90
1568;DHT22;777;47.156;8.326;2023-04-08T10:50:43;13.60;99.90
1568;DHT22;777;47.156;8.326;2023-04-08T10:53:10;14.60;99.90
1568;DHT22;777;47.156;8.326;2023-04-08T10:55:37;14.40;99.90
1568;DHT22;777;47.156;8.326;2023-04-08T10:58:05;15.30;99.90
1568;DHT22;777;47.156;8.326;2023-04-08T11:00:36;16.10;99.90
1568;DHT22;777;47.156;8.326;2023-04-08T11:03:04;17.30;99.90
1568;DHT22;777;47.156;8.326;2023-04-08T11:05:32;18.10;99.90
1568;DHT22;777;47.156;8.326;2023-04-08T11:08:00;19.30;99.90
1568;DHT22;777;47.156;8.326;2023-04-08T11:10:27;19.20;99.90
1568;DHT22;777;47.156;8.326;2023-04-08T11:12:54;18.90;99.90
1568;DHT22;777;47.156;8.326;2023-04-08T11:15:22;18.20;99.90
1568;DHT22;777;47.156;8.326;2023-04-08T11:17:51;16.60;99.90
1568;DHT22;777;47.156;8.326;2023-04-08T11:20:20;14.80;99.90
1568;DHT22;777;47.156;8.326;2023-04-08T11:22:47;13.80;99.90
1568;DHT22;777;47.156;8.326;2023-04-08T11:25:16;14.30;99.90
1568;DHT22;777;47.156;8.326;2023-04-08T11:27:43;15.30;99.90
1568;DHT22;777;47.156;8.326;2023-04-08T11:30:10;16.00;99.90
1568;DHT22;777;47.156;8.326;2023-04-08T11:32:38;15.90;99.90
1568;DHT22;777;47.156;8.326;2023-04-08T11:35:07;14.50;99.90
1568;DHT22;777;47.156;8.326;2023-04-08T11:37:37;13.60;99.90
1568;DHT22;777;47.156;8.326;2023-04-08T11:40:07;14.10;99.90
1568;DHT22;777;47.156;8.326;2023-04-08T11:42:34;13.50;99.90
1568;DHT22;777;47.156;8.326;2023-04-08T11:45:09;13.70;99.90
1568;DHT22;777;47.156;8.326;2023-04-08T11:47:36;14.90;99.90
1568;DHT22;777;47.156;8.326;2023-04-08T11:50:04;15.40;99.90
1568;DHT22;777;47.156;8.326;2023-04-08T11:52:45;15.50;99.90
1568;DHT22;777;47.156;8.326;2023-04-08T11:55:22;15.90;99.90
1568;DHT22;777;47.156;8.326;2023-04-08T11:57:50;16.10;99.90
1568;DHT22;777;47.156;8.326;2023-04-08T12:00:17;16.00;99.90
1568;DHT22;777;47.156;8.326;2023-04-08T12:02:45;15.90;99.90
1568;DHT22;777;47.156;8.326;2023-04-08T12:05:13;14.50;99.90
1568;DHT22;777;47.156;8.326;2023-04-08T12:07:40;13.40;99.90
1568;DHT22;777;47.156;8.326;2023-04-08T12:10:10;13.70;99.90
1568;DHT22;777;47.156;8.326;2023-04-08T12:12:37;13.60;99.90
1568;DHT22;777;47.156;8.326;2023-04-08T12:15:05;13.30;99.90
1568;DHT22;777;47.156;8.326;2023-04-08T12:17:32;12.40;99.90
1568;DHT22;777;47.156;8.326;2023-04-08T12:20:00;12.40;99.90
1568;DHT22;777;47.156;8.326;2023-04-08T12:22:27;12.30;99.90
1568;DHT22;777;47.156;8.326;2023-04-08T12:24:55;12.70;99.90
1568;DHT22;777;47.156;8.326;2023-04-08T12:27:23;13.00;99.90
1568;DHT22;777;47.156;8.326;2023-04-08T12:29:51;13.40;99.90
1568;DHT22;777;47.156;8.326;2023-04-08T12:32:18;13.70;99.90
1568;DHT22;777;47.156;8.326;2023-04-08T12:34:45;13.80;99.90
1568;DHT22;777;47.156;8.326;2023-04-08T12:37:12;13.30;99.90
1568;DHT22;777;47.156;8.326;2023-04-08T12:39:39;13.10;99.90
1568;DHT22;777;47.156;8.326;2023-04-08T12:42:06;13.90;99.90
1568;DHT22;777;47.156;8.326;2023-04-08T12:44:34;14.60;99.90
1568;DHT22;777;47.156;8.326;2023-04-08T12:47:01;15.20;99.90
1568;DHT22;777;47.156;8.326;2023-04-08T12:49:28;15.50;99.90
1568;DHT22;777;47.156;8.326;2023-04-08T12:51:55;15.50;99.90
1568;DHT22;777;47.156;8.326;2023-04-08T12:54:22;16.00;99.90
1568;DHT22;777;47.156;8.326;2023-04-08T12:56:49;16.90;99.90
1568;DHT22;777;47.156;8.326;2023-04-08T12:59:16;16.80;99.90
1568;DHT22;777;47.156;8.326;2023-04-08T13:01:45;16.70;99.90
1568;DHT22;777;47.156;8.326;2023-04-08T13:04:12;15.60;99.90
1568;DHT22;777;47.156;8.326;2023-04-08T13:06:39;15.40;99.90
1568;DHT22;777;47.156;8.326;2023-04-08T13:09:06;15.10;99.90
1568;DHT22;777;47.156;8.326;2023-04-08T13:11:33;14.80;99.90
1568;DHT22;777;47.156;8.326;2023-04-08T13:14:00;14.70;99.90
1568;DHT22;777;47.156;8.326;2023-04-08T13:16:27;14.40;99.90
1568;DHT22;777;47.156;8.326;2023-04-08T13:18:55;14.20;99.90
1568;DHT22;777;47.156;8.326;2023-04-08T13:21:22;13.90;99.90
1568;DHT22;777;47.156;8.326;2023-04-08T13:23:49;13.60;99.90
1568;DHT22;777;47.156;8.326;2023-04-08T13:26:16;13.40;99.90
1568;DHT22;777;47.156;8.326;2023-04-08T13:28:43;13.40;99.90
1568;DHT22;777;47.156;8.326;2023-04-08T13:31:10;13.30;99.90
1568;DHT22;777;47.156;8.326;2023-04-08T13:33:37;13.20;99.90
1568;DHT22;777;47.156;8.326;2023-04-08T13:36:06;13.10;99.90
1568;DHT22;777;47.156;8.326;2023-04-08T13:38:33;12.90;99.90
1568;DHT22;777;47.156;8.326;2023-04-08T13:41:01;12.70;99.90
1568;DHT22;777;47.156;8.326;2023-04-08T13:43:28;12.70;99.90
1568;DHT22;777;47.156;8.326;2023-04-08T13:45:55;12.60;99.90
1568;DHT22;777;47.156;8.326;2023-04-08T13:48:23;12.40;99.90
1568;DHT22;777;47.156;8.326;2023-04-08T13:50:50;12.50;99.90
1568;DHT22;777;47.156;8.326;2023-04-08T13:53:19;11.90;99.90
1568;DHT22;777;47.156;8.326;2023-04-08T13:55:46;11.40;99.90
1568;DHT22;777;47.156;8.326;2023-04-08T13:58:13;11.20;99.90
1568;DHT22;777;47.156;8.326;2023-04-08T14:00:40;11.30;99.90
1568;DHT22;777;47.156;8.326;2023-04-08T14:03:07;11.20;99.90
1568;DHT22;777;47.156;8.326;2023-04-08T14:05:34;11.00;99.90
1568;DHT22;777;47.156;8.326;2023-04-08T14:08:01;11.40;99.90
1568;DHT22;777;47.156;8.326;2023-04-08T14:10:29;11.90;99.90
1568;DHT22;777;47.156;8.326;2023-04-08T14:12:56;11.80;99.90
1568;DHT22;777;47.156;8.326;2023-04-08T14:15:23;11.70;99.90
1568;DHT22;777;47.156;8.326;2023-04-08T14:17:50;11.70;99.90
1568;DHT22;777;47.156;8.326;2023-04-08T14:20:17;12.00;99.90
1568;DHT22;777;47.156;8.326;2023-04-08T14:22:45;12.00;99.90
1568;DHT22;777;47.156;8.326;2023-04-08T14:25:12;12.00;99.90
1568;DHT22;777;47.156;8.326;2023-04-08T14:27:41;12.40;99.90
1568;DHT22;777;47.156;8.326;2023-04-08T14:30:09;12.30;99.90
1568;DHT22;777;47.156;8.326;2023-04-08T14:32:36;12.40;99.90
1568;DHT22;777;47.156;8.326;2023-04-08T14:35:03;12.30;99.90
1568;DHT22;777;47.156;8.326;2023-04-08T14:37:30;11.20;99.90
1568;DHT22;777;47.156;8.326;2023-04-08T14:39:58;11.30;99.90
1568;DHT22;777;47.156;8.326;2023-04-08T14:42:26;10.90;99.90
1568;DHT22;777;47.156;8.326;2023-04-08T14:44:54;10.50;99.90
1568;DHT22;777;47.156;8.326;2023-04-08T14:47:22;10.70;99.90
1568;DHT22;777;47.156;8.326;2023-04-08T14:49:49;10.70;99.90
1568;DHT22;777;47.156;8.326;2023-04-08T14:52:16;10.70;99.90
1568;DHT22;777;47.156;8.326;2023-04-08T14:54:43;10.50;99.90
1568;DHT22;777;47.156;8.326;2023-04-08T14:57:11;10.60;99.90
1568;DHT22;777;47.156;8.326;2023-04-08T14:59:38;10.70;99.90
1568;DHT22;777;47.156;8.326;2023-04-08T15:02:07;10.60;99.90
1568;DHT22;777;47.156;8.326;2023-04-08T15:04:34;10.40;99.90
1568;DHT22;777;47.156;8.326;2023-04-08T15:07:01;10.30;99.90
1568;DHT22;777;47.156;8.326;2023-04-08T15:09:28;10.30;99.90
1568;DHT22;777;47.156;8.326;2023-04-08T15:11:55;10.50;99.90
1568;DHT22;777;47.156;8.326;2023-04-08T15:14:23;10.60;99.90
1568;DHT22;777;47.156;8.326;2023-04-08T15:16:50;10.40;99.90
1568;DHT22;777;47.156;8.326;2023-04-08T15:19:18;10.20;99.90
1568;DHT22;777;47.156;8.326;2023-04-08T15:21:45;10.10;99.90
1568;DHT22;777;47.156;8.326;2023-04-08T15:24:13;10.10;99.90
1568;DHT22;777;47.156;8.326;2023-04-08T15:26:40;10.00;99.90
1568;DHT22;777;47.156;8.326;2023-04-08T15:29:07;9.90;99.90
1568;DHT22;777;47.156;8.326;2023-04-08T15:31:34;10.00;99.90
1568;DHT22;777;47.156;8.326;2023-04-08T15:34:01;9.90;99.90
1568;DHT22;777;47.156;8.326;2023-04-08T15:36:29;9.80;99.90
1568;DHT22;777;47.156;8.326;2023-04-08T15:38:56;9.90;99.90
1568;DHT22;777;47.156;8.326;2023-04-08T15:41:23;10.10;99.90
1568;DHT22;777;47.156;8.326;2023-04-08T15:43:51;10.10;99.90
1568;DHT22;777;47.156;8.326;2023-04-08T15:46:19;10.10;99.90
1568;DHT22;777;47.156;8.326;2023-04-08T15:48:46;10.40;99.90
1568;DHT22;777;47.156;8.326;2023-04-08T15:51:13;10.40;99.90
1568;DHT22;777;47.156;8.326;2023-04-08T15:53:41;10.40;99.90
1568;DHT22;777;47.156;8.326;2023-04-08T15:56:11;10.20;99.90
1568;DHT22;777;47.156;8.326;2023-04-08T15:58:39;10.30;99.90
1568;DHT22;777;47.156;8.326;2023-04-08T16:01:06;10.30;99.90
1568;DHT22;777;47.156;8.326;2023-04-08T16:03:33;10.40;99.90
1568;DHT22;777;47.156;8.326;2023-04-08T16:06:00;10.30;99.90
1568;DHT22;777;47.156;8.326;2023-04-08T16:08:27;10.50;99.90
1568;DHT22;777;47.156;8.326;2023-04-08T16:11:00;10.60;99.90
1568;DHT22;777;47.156;8.326;2023-04-08T16:13:28;10.80;99.90
1568;DHT22;777;47.156;8.326;2023-04-08T16:15:55;11.40;99.90
1568;DHT22;777;47.156;8.326;2023-04-08T16:18:22;11.70;99.90
1568;DHT22;777;47.156;8.326;2023-04-08T16:20:49;11.30;99.90
1568;DHT22;777;47.156;8.326;2023-04-08T16:23:16;11.10;99.90
1568;DHT22;777;47.156;8.326;2023-04-08T16:25:43;10.60;99.90
1568;DHT22;777;47.156;8.326;2023-04-08T16:28:13;10.50;99.90
1568;DHT22;777;47.156;8.326;2023-04-08T16:30:40;10.30;99.90
1568;DHT22;777;47.156;8.326;2023-04-08T16:33:09;10.20;99.90